EDT,Max TemperatureF,Mean TemperatureF,Min TemperatureF,Max Dew PointF,MeanDew PointF,Min DewpointF,Max Humidity, Mean Humidity, Min Humidity, Max Sea Level PressureIn, Mean Sea Level PressureIn, Min Sea Level PressureIn, Max VisibilityMiles, Mean VisibilityMiles, Min VisibilityMiles, Max Wind SpeedMPH, Mean Wind SpeedMPH, Max Gust SpeedMPH,PrecipitationIn, CloudCover, Events, WindDirDegrees
2010-10-1,77,67,57,69,64,55,100,89,74,29.72,29.62,29.52,10,7,2,22,13,28,0.86,8,Rain,292
2010-10-2,64,55,45,55,44,39,93,66,43,30.11,29.88,29.64,10,10,10,13,9,21,0.00,1,,301
2010-10-3,57,48,39,44,40,37,93,71,48,30.27,30.20,30.12,10,10,10,12,6,,0.00,5,,10
2010-10-4,59,53,47,46,43,40,83,68,53,30.27,30.21,30.14,10,9,7,20,11,26,0.06,7,Rain,31
2010-10-5,59,56,54,52,48,45,82,74,67,30.13,30.10,30.06,10,9,4,14,9,23,0.01,8,Rain,46
2010-10-6,57,54,51,54,51,48,95,88,72,30.12,29.89,29.56,10,5,1,25,11,36,0.78,8,Rain,42
2010-10-7,63,56,49,51,48,41,96,81,46,29.70,29.51,29.43,10,9,2,16,8,28,0.01,6,Rain,242
2010-10-8,73,60,46,49,43,38,78,59,34,29.78,29.71,29.61,10,10,10,20,9,29,0.00,1,,249
2010-10-9,58,52,44,47,35,29,73,52,33,29.94,29.84,29.74,10,10,10,20,11,33,0.00,2,,289
2010-10-10,65,54,43,36,30,26,68,47,25,29.92,29.77,29.63,10,10,10,16,9,24,0.00,2,,257
2010-10-11,65,54,42,41,38,34,91,60,35,29.82,29.74,29.67,10,10,10,13,7,21,0.00,3,,294
2010-10-12,61,50,41,46,41,34,90,74,50,29.89,29.80,29.75,10,10,10,9,5,,0.00,4,,337
2010-10-13,60,48,36,43,38,33,93,73,45,30.04,29.99,29.91,10,10,10,8,4,,0.00,0,,268
2010-10-14,59,47,35,48,43,34,96,80,59,30.04,29.94,29.73,10,9,0,14,5,,0.00,5,Fog-Rain,88
2010-10-15,58,50,41,57,46,38,96,90,76,29.72,29.20,29.01,10,4,1,29,14,37,2.19,8,Rain,286
2010-10-16,57,50,42,39,37,36,87,66,46,29.75,29.49,29.22,10,10,7,26,15,36,0.00,4,Rain,296
2010-10-17,63,52,43,43,38,34,77,60,42,29.77,29.72,29.62,10,10,10,20,9,29,0.00,4,Rain,268
2010-10-18,57,46,36,37,30,26,85,53,31,29.89,29.82,29.76,10,10,10,15,8,24,0.00,3,,275
2010-10-19,57,44,31,34,31,27,91,69,32,29.93,29.89,29.85,10,10,10,12,3,,0.00,3,,273
2010-10-20,60,46,33,47,38,31,92,77,38,29.94,29.86,29.76,10,10,10,12,2,,0.00,4,,176
2010-10-21,57,46,36,49,41,35,95,83,63,29.74,29.58,29.44,10,9,5,16,4,22,0.01,4,Fog-Rain,231
2010-10-22,47,40,36,34,25,20,86,56,39,29.93,29.82,29.68,10,10,10,24,10,37,0.00,4,,268
2010-10-23,53,44,36,30,24,22,68,49,31,30.17,30.03,29.94,10,10,10,20,12,28,0.00,2,,275
2010-10-24,45,40,34,40,33,26,85,74,59,30.22,30.16,30.10,10,10,8,6,2,,0.00,8,Rain,339
2010-10-25,54,48,42,51,45,39,99,88,79,30.09,29.96,29.81,10,6,0,5,2,,0.00,8,Fog-Rain,39
2010-10-26,67,59,51,62,54,51,100,97,72,29.96,29.88,29.78,10,3,0,12,4,17,0.00,7,Fog,46
2010-10-27,72,63,55,68,63,55,100,94,83,29.95,29.85,29.77,10,5,0,13,7,,0.13,8,Fog-Rain,170
2010-10-28,73,60,49,61,51,35,100,81,34,29.82,29.78,29.68,10,6,0,13,4,20,0.00,4,Fog,235
2010-10-29,55,49,41,44,38,25,78,67,52,29.90,29.84,29.79,10,10,7,17,8,25,0.01,5,Rain,284
2010-10-30,54,44,33,32,29,24,73,53,41,29.95,29.84,29.67,10,10,10,16,9,26,0.00,6,,237
2010-10-31,54,44,36,35,29,20,63,51,41,30.04,29.76,29.62,10,10,10,21,10,30,0.00,5,,270